Eakly, Oklahoma
Current Conditions -  °F | °C
As of 10:15 PM on Tuesday 25 Nov 2014 (Local Time) from KOJA Reporting Station
Clear Clear  
Wind Chill: 35°   Ceiling: Unl
Heat Index: 41°   Visibility: 10mi
Dew Point: 28°   Wind: 10mph
Humidity: 61%   Direction: 170°S
Pressure: 29.99"   Gusts: 17mph
Location:  35.31°N, 98.56°W
Report Text: KOJA 260415Z AUTO 17009G15KT 10SM CLR 05/M02 A2999 RMK AO2
Loading
Personal Weather Stations






























Interactive Weather Map New forecast layout! Learn more

10-Day Weather Forecast

Advertisements
Track Severe Weather on mobile